Time;durP1;ratioP1;P1;durP2;ratioP2;P2;SDS_P1;SDS_P2;PMS_P1;PMS_P2;Temp;Humidity;BMP_temperature;BMP_pressure;BME280_temperature;BME280_humidity;BME280_pressure;Samples;Min_cycle;Max_cycle;Signal;HPM_P1;HPM_P2
2023/07/06 00:01:10;;;;;;;1.15;0.95;;;14.40;76.30;14.40;100595.00;;;;4972056;28;93082;-69
2023/07/06 00:03:37;;;;;;;4.82;1.02;;;14.30;76.60;14.40;100589.00;;;;4968834;28;92917;-69
2023/07/06 00:06:09;;;;;;;1.33;1.00;;;14.40;76.90;14.40;100596.00;;;;4970640;28;93885;-69
2023/07/06 00:08:37;;;;;;;2.53;1.30;;;14.40;77.10;14.40;100598.00;;;;4964133;28;122481;-69
2023/07/06 00:11:04;;;;;;;10.40;1.73;;;14.30;77.10;14.40;100595.00;;;;4966064;28;94036;-69
2023/07/06 00:13:34;;;;;;;1.38;0.82;;;14.30;77.40;14.40;100611.00;;;;4968363;28;93067;-69
2023/07/06 00:16:00;;;;;;;1.25;1.15;;;14.30;77.70;14.30;100611.00;;;;4968592;28;92928;-69
2023/07/06 00:18:27;;;;;;;2.33;1.30;;;14.30;78.00;14.30;100611.00;;;;4959262;28;123874;-69
2023/07/06 00:20:53;;;;;;;1.93;1.43;;;14.30;78.10;14.30;100616.00;;;;4968789;28;93902;-69
2023/07/06 00:23:20;;;;;;;2.00;1.42;;;14.20;78.10;14.20;100620.00;;;;4951725;28;92230;-69
2023/07/06 00:25:47;;;;;;;1.93;1.33;;;14.20;78.30;14.20;100605.00;;;;4967166;28;94361;-70
2023/07/06 00:28:14;;;;;;;4.70;1.07;;;14.10;78.30;14.10;100606.00;;;;4968088;28;92883;-69
2023/07/06 00:30:52;;;;;;;1.60;1.30;;;14.10;78.70;14.10;100605.00;;;;4953224;28;94007;-69
2023/07/06 00:33:20;;;;;;;1.40;0.80;;;14.00;78.90;14.00;100610.00;;;;4965552;28;93215;-69
2023/07/06 00:35:47;;;;;;;1.60;0.97;;;14.00;79.10;13.90;100615.00;;;;4968673;28;92818;-68
2023/07/06 00:38:16;;;;;;;1.93;1.10;;;13.90;79.30;13.90;100621.00;;;;4968308;28;109173;-68
2023/07/06 00:40:47;;;;;;;1.40;1.30;;;13.80;79.60;13.80;100616.00;;;;4965455;28;109096;-69
2023/07/06 00:43:27;;;;;;;2.50;1.20;;;13.80;80.00;13.70;100617.00;;;;4965692;28;92839;-69
2023/07/06 00:46:09;;;;;;;0.90;0.88;;;13.70;80.30;13.60;100613.00;;;;4967265;28;100540;-68
2023/07/06 00:48:44;;;;;;;0.80;0.80;;;13.60;80.80;13.60;100630.00;;;;4956087;28;103291;-69
2023/07/06 00:51:39;;;;;;;3.17;1.40;;;13.60;81.00;13.50;100622.00;;;;4950598;28;92858;-68
2023/07/06 00:54:12;;;;;;;2.23;1.07;;;13.50;81.50;13.50;100631.00;;;;4959009;28;92817;-68
2023/07/06 00:56:41;;;;;;;2.80;1.23;;;13.50;82.30;13.50;100630.00;;;;4950089;28;93935;-68
2023/07/06 00:59:13;;;;;;;1.73;1.07;;;13.40;82.50;13.40;100627.00;;;;4967554;28;115500;-68
2023/07/06 01:01:44;;;;;;;2.37;1.13;;;13.40;82.60;13.30;100618.00;;;;4966378;28;111194;-69
2023/07/06 01:04:12;;;;;;;1.47;1.20;;;13.30;82.80;13.30;100619.00;;;;4946630;28;93042;-68
2023/07/06 01:06:47;;;;;;;1.70;1.57;;;13.30;83.00;13.20;100613.00;;;;4968532;28;93096;-69
2023/07/06 01:09:14;;;;;;;2.47;1.30;;;13.20;83.30;13.20;100612.00;;;;4967235;28;94022;-69
2023/07/06 01:11:43;;;;;;;1.80;1.53;;;13.20;83.60;13.20;100608.00;;;;4971084;28;112176;-69
2023/07/06 01:14:13;;;;;;;1.30;0.80;;;13.20;84.00;13.10;100611.00;;;;4974568;28;92423;-69
2023/07/06 01:16:59;;;;;;;1.13;1.00;;;13.10;84.10;13.10;100603.00;;;;4972830;28;93260;-69
2023/07/06 01:20:04;;;;;;;1.23;1.13;;;13.10;84.50;13.00;100593.00;;;;4972221;28;93097;-69
2023/07/06 01:22:42;;;;;;;2.10;1.90;;;13.00;84.90;12.90;100605.00;;;;4968001;28;93963;-69
2023/07/06 01:25:35;;;;;;;1.17;0.90;;;13.00;85.50;12.80;100608.00;;;;4969626;28;93214;-69
2023/07/06 01:28:13;;;;;;;3.20;1.47;;;12.90;85.80;12.80;100592.00;;;;4967989;28;92815;-68
2023/07/06 01:31:20;;;;;;;1.33;1.17;;;12.80;86.30;12.70;100610.00;;;;4964983;28;93720;-69
2023/07/06 01:33:58;;;;;;;2.73;1.50;;;12.80;87.20;12.70;100596.00;;;;4954795;28;94017;-69
2023/07/06 01:37:09;;;;;;;2.90;1.27;;;12.80;87.50;12.60;100602.00;;;;4968432;28;92864;-69
2023/07/06 01:39:35;;;;;;;2.30;1.00;;;12.80;88.00;12.60;100609.00;;;;4955552;28;93146;-69
2023/07/06 01:42:12;;;;;;;2.60;1.63;;;12.70;88.30;12.60;100612.00;;;;4958094;28;93031;-69
2023/07/06 01:44:41;;;;;;;4.10;1.87;;;12.60;89.00;12.50;100609.00;;;;4969929;28;92953;-70
2023/07/06 01:47:07;;;;;;;1.30;1.20;;;12.50;89.40;12.40;100616.00;;;;4953833;28;93002;-69
2023/07/06 01:49:33;;;;;;;1.70;1.57;;;12.50;89.90;12.40;100608.00;;;;4971650;28;93982;-69
2023/07/06 01:52:16;;;;;;;1.73;1.20;;;12.40;90.20;12.30;100601.00;;;;4958622;28;94086;-69
2023/07/06 01:55:00;;;;;;;1.33;1.23;;;12.40;90.40;12.30;100602.00;;;;4959384;28;93085;-69
2023/07/06 01:57:33;;;;;;;1.17;1.07;;;12.40;90.60;12.30;100607.00;;;;4957899;28;92917;-69
2023/07/06 02:00:01;;;;;;;1.70;1.43;;;12.30;90.70;12.30;100606.00;;;;4953422;28;93341;-69
2023/07/06 02:02:30;;;;;;;2.47;1.50;;;12.20;90.90;12.20;100619.00;;;;4968048;28;95014;-69
2023/07/06 02:04:57;;;;;;;2.13;1.37;;;12.20;91.20;12.20;100624.00;;;;4951693;28;93140;-69
2023/07/06 02:07:24;;;;;;;1.57;1.07;;;12.20;91.50;12.10;100619.00;;;;4966989;28;92315;-69
2023/07/06 02:09:54;;;;;;;1.23;0.80;;;12.10;91.60;12.10;100619.00;;;;4958878;28;108454;-69
2023/07/06 02:12:21;;;;;;;2.17;1.37;;;12.10;91.80;12.10;100630.00;;;;4973631;28;93115;-70
2023/07/06 02:14:48;;;;;;;4.23;1.50;;;12.10;92.00;12.10;100625.00;;;;4965735;28;93862;-68
2023/07/06 02:17:15;;;;;;;1.63;1.10;;;12.10;92.20;12.00;100629.00;;;;4968872;28;93070;-68
2023/07/06 02:19:43;;;;;;;1.93;1.37;;;12.00;92.40;12.00;100628.00;;;;4970227;28;93004;-69
2023/07/06 02:22:09;;;;;;;1.10;1.00;;;12.00;92.50;12.00;100629.00;;;;4955879;28;122051;-68
2023/07/06 02:24:36;;;;;;;7.23;1.37;;;12.00;92.70;12.00;100633.00;;;;4971792;28;92962;-68
2023/07/06 02:27:03;;;;;;;1.50;1.07;;;12.00;93.10;12.00;100631.00;;;;4971258;28;93133;-70
2023/07/06 02:29:29;;;;;;;2.20;1.03;;;12.00;93.40;11.90;100634.00;;;;4965125;28;92904;-70
2023/07/06 02:31:55;;;;;;;1.83;1.60;;;12.50;93.60;11.90;100627.00;;;;4968737;28;108199;-68
2023/07/06 02:34:26;;;;;;;1.50;1.40;;;11.90;93.70;11.90;100632.00;;;;4966501;28;93074;-69
2023/07/06 02:36:53;;;;;;;5.13;1.20;;;11.90;94.20;11.80;100628.00;;;;4973843;28;92992;-68
2023/07/06 02:39:23;;;;;;;1.33;0.80;;;11.80;94.60;11.70;100630.00;;;;4972344;28;94127;-68
2023/07/06 02:41:53;;;;;;;2.40;0.77;;;11.80;94.90;11.70;100637.00;;;;4970724;28;93130;-69
2023/07/06 02:44:22;;;;;;;1.77;1.20;;;11.70;95.10;11.70;100641.00;;;;4969364;28;93033;-68
2023/07/06 02:46:48;;;;;;;1.03;0.93;;;11.70;95.30;11.60;100637.00;;;;4970535;28;92876;-69
2023/07/06 02:49:15;;;;;;;1.43;1.10;;;11.70;95.50;11.60;100644.00;;;;4969370;28;104092;-69
2023/07/06 02:51:41;;;;;;;3.67;1.93;;;11.60;95.60;11.60;100636.00;;;;4972351;28;93208;-69
2023/07/06 02:54:10;;;;;;;2.40;1.10;;;11.60;95.80;11.60;100645.00;;;;4969356;28;92792;-68
2023/07/06 02:56:35;;;;;;;1.57;1.47;;;11.60;95.90;11.50;100641.00;;;;4968291;28;92186;-68
2023/07/06 02:59:01;;;;;;;1.03;0.87;;;11.60;96.10;11.50;100642.00;;;;4970427;28;109009;-68
2023/07/06 03:01:27;;;;;;;1.70;1.27;;;11.60;96.30;11.50;100637.00;;;;4965860;28;122887;-69
2023/07/06 03:03:52;;;;;;;2.53;1.37;;;11.50;96.40;11.40;100640.00;;;;4969677;28;122825;-68
2023/07/06 03:06:18;;;;;;;1.60;1.40;;;11.50;96.60;11.40;100640.00;;;;4968969;28;93273;-69
2023/07/06 03:08:46;;;;;;;1.10;1.10;;;11.40;96.80;11.40;100644.00;;;;4969887;28;93134;-69
2023/07/06 03:11:12;;;;;;;2.40;1.40;;;11.40;97.10;11.30;100647.00;;;;4967561;28;94106;-70
2023/07/06 03:13:39;;;;;;;3.00;1.80;;;11.40;97.40;11.30;100653.00;;;;4970907;28;119727;-71
2023/07/06 03:16:05;;;;;;;1.90;1.30;;;11.40;97.70;11.30;100659.00;;;;4954406;28;92954;-69
2023/07/06 03:18:30;;;;;;;1.37;1.27;;;11.40;98.20;11.30;100654.00;;;;4971586;28;92719;-70
2023/07/06 03:20:56;;;;;;;2.30;1.40;;;11.30;98.50;11.30;100665.00;;;;4969992;28;121381;-70
2023/07/06 03:23:23;;;;;;;3.27;1.37;;;11.30;98.80;11.30;100659.00;;;;4966845;28;122911;-69
2023/07/06 03:25:51;;;;;;;1.30;1.20;;;11.30;99.20;11.30;100650.00;;;;4971076;28;92921;-69
2023/07/06 03:28:17;;;;;;;2.30;1.40;;;11.30;99.30;11.30;100649.00;;;;4955800;28;94029;-70
2023/07/06 03:30:43;;;;;;;1.00;0.90;;;11.30;99.60;11.30;100643.00;;;;4968678;28;94067;-70
2023/07/06 03:33:09;;;;;;;1.73;1.03;;;11.30;99.80;11.30;100651.00;;;;4967355;28;100356;-70
2023/07/06 03:35:39;;;;;;;1.63;1.37;;;11.40;99.90;11.40;100648.00;;;;4969394;28;109805;-70
2023/07/06 03:38:05;;;;;;;1.57;1.17;;;11.30;99.90;11.40;100653.00;;;;4953137;28;93087;-70
2023/07/06 03:40:31;;;;;;;1.97;1.37;;;11.40;99.90;11.40;100658.00;;;;4969393;28;122327;-69
2023/07/06 03:42:58;;;;;;;2.37;1.87;;;11.40;99.90;11.50;100661.00;;;;4970988;28;93845;-70
2023/07/06 03:45:24;;;;;;;1.87;1.20;;;11.50;99.90;11.50;100661.00;;;;4968148;28;91988;-70
2023/07/06 03:47:50;;;;;;;1.97;1.23;;;11.50;99.90;11.60;100668.00;;;;4969836;28;104658;-69
2023/07/06 03:50:20;;;;;;;1.40;0.93;;;11.60;99.90;11.70;100675.00;;;;4968864;28;94180;-70
2023/07/06 03:52:47;;;;;;;1.80;1.20;;;11.60;99.90;11.70;100680.00;;;;4947494;28;94862;-70
2023/07/06 03:55:20;;;;;;;4.47;1.37;;;11.70;99.90;11.80;100680.00;;;;4953117;28;93004;-70
2023/07/06 03:57:47;;;;;;;2.87;1.40;;;11.80;99.90;11.90;100691.00;;;;4955750;28;92878;-70
2023/07/06 04:00:21;;;;;;;1.77;1.37;;;11.80;99.90;12.00;100684.00;;;;4967498;28;94045;-70
2023/07/06 04:02:53;;;;;;;2.10;1.50;;;11.90;99.90;12.10;100686.00;;;;4966706;28;93763;-69
2023/07/06 04:05:23;;;;;;;1.27;0.97;;;12.00;99.90;12.20;100687.00;;;;4968942;28;93285;-69
2023/07/06 04:07:52;;;;;;;1.40;0.87;;;12.10;99.90;12.30;100688.00;;;;4971063;28;93062;-69
2023/07/06 04:10:22;;;;;;;1.43;1.33;;;12.20;99.90;12.40;100690.00;;;;4971661;28;93444;-70
2023/07/06 04:12:49;;;;;;;2.50;1.37;;;12.30;99.90;12.50;100684.00;;;;4968682;28;121074;-70
2023/07/06 04:15:21;;;;;;;1.50;1.23;;;12.40;99.90;12.60;100693.00;;;;4954695;28;92881;-69
2023/07/06 04:17:53;;;;;;;1.20;1.10;;;12.50;99.90;12.70;100692.00;;;;4966623;28;93996;-69
2023/07/06 04:20:28;;;;;;;2.90;1.33;;;12.70;99.90;12.90;100694.00;;;;4971721;28;94157;-69
2023/07/06 04:22:57;;;;;;;1.77;1.10;;;12.80;99.90;13.00;100701.00;;;;4936320;28;94860;-69
2023/07/06 04:25:31;;;;;;;1.27;1.10;;;12.90;99.90;13.10;100703.00;;;;4972913;28;92989;-69
2023/07/06 04:28:05;;;;;;;1.70;1.60;;;13.10;99.90;13.30;100706.00;;;;4941099;28;92840;-69
2023/07/06 04:30:33;;;;;;;2.73;1.20;;;13.20;99.90;13.50;100702.00;;;;4969034;28;94356;-70
2023/07/06 04:33:00;;;;;;;1.53;1.43;;;13.30;99.90;13.60;100702.00;;;;4945650;28;93472;-69
2023/07/06 04:35:26;;;;;;;1.47;1.00;;;13.50;99.90;13.70;100706.00;;;;4964962;28;92522;-69
2023/07/06 04:37:53;;;;;;;5.00;1.90;;;13.60;99.90;13.90;100711.00;;;;4968557;28;92892;-69
2023/07/06 04:40:21;;;;;;;2.00;1.27;;;13.80;99.90;14.00;100716.00;;;;4983214;28;94241;-70
2023/07/06 04:42:50;;;;;;;2.70;1.20;;;13.90;99.60;14.20;100716.00;;;;4967511;28;94041;-70
2023/07/06 04:45:17;;;;;;;3.00;1.20;;;14.00;99.70;14.40;100717.00;;;;4967269;28;94019;-70
2023/07/06 04:47:44;;;;;;;2.23;0.93;;;14.20;99.20;14.50;100719.00;;;;4971912;28;92997;-71
2023/07/06 04:50:17;;;;;;;1.47;0.90;;;14.40;99.00;14.70;100727.00;;;;4965001;28;104432;-70
2023/07/06 04:52:44;;;;;;;2.00;0.97;;;14.60;98.80;14.90;100732.00;;;;4967141;28;92843;-70
2023/07/06 04:55:10;;;;;;;0.80;0.80;;;14.80;98.40;15.10;100722.00;;;;4969778;28;93074;-68
2023/07/06 04:57:37;;;;;;;1.67;1.38;;;14.90;98.00;15.20;100725.00;;;;4966720;28;93339;-69
2023/07/06 05:00:18;;;;;;;1.20;1.05;;;15.10;97.60;15.40;100716.00;;;;4968519;28;92207;-69
2023/07/06 05:02:45;;;;;;;2.25;1.27;;;15.30;97.30;15.40;100722.00;;;;4966662;28;93779;-69
2023/07/06 05:05:16;;;;;;;1.80;1.10;;;15.30;96.90;15.50;100726.00;;;;4967047;28;93105;-69
2023/07/06 05:07:42;;;;;;;2.08;1.58;;;15.40;96.70;15.60;100720.00;;;;4969837;28;93832;-69
2023/07/06 05:10:09;;;;;;;2.33;1.00;;;15.50;96.40;15.60;100723.00;;;;4965160;28;122276;-69
2023/07/06 05:12:35;;;;;;;1.15;0.85;;;15.50;96.30;15.70;100722.00;;;;4968023;28;93272;-69
2023/07/06 05:15:03;;;;;;;1.08;0.90;;;15.60;96.10;15.80;100730.00;;;;4963240;28;93007;-69
2023/07/06 05:17:28;;;;;;;1.95;1.17;;;15.70;95.90;15.80;100735.00;;;;4967528;28;99131;-70
2023/07/06 05:19:55;;;;;;;1.15;0.95;;;15.70;95.80;15.90;100728.00;;;;4951654;28;122373;-70
2023/07/06 05:22:21;;;;;;;2.83;0.75;;;15.80;95.70;16.00;100733.00;;;;4965919;28;93971;-71
2023/07/06 05:24:48;;;;;;;1.77;1.40;;;15.90;95.50;16.20;100734.00;;;;4948202;28;96355;-70
2023/07/06 05:27:14;;;;;;;1.48;1.23;;;16.00;95.40;16.30;100733.00;;;;4966399;28;92942;-70
2023/07/06 05:29:40;;;;;;;1.15;0.80;;;16.20;95.20;16.50;100735.00;;;;4969256;28;123747;-70
2023/07/06 05:32:08;;;;;;;2.35;1.42;;;16.30;95.00;16.70;100739.00;;;;4947826;28;120777;-70
2023/07/06 05:34:34;;;;;;;3.45;1.88;;;16.50;94.80;16.90;100746.00;;;;4966287;28;93131;-70
2023/07/06 05:37:01;;;;;;;3.83;1.27;;;16.70;94.40;17.10;100739.00;;;;4967202;28;109032;-71
2023/07/06 05:39:26;;;;;;;2.17;1.30;;;16.90;94.10;17.20;100736.00;;;;4944828;28;95492;-68
2023/07/06 05:41:52;;;;;;;2.40;1.20;;;17.10;93.40;17.30;100744.00;;;;4966723;28;121769;-69
2023/07/06 05:44:18;;;;;;;0.90;0.90;;;17.20;93.00;17.40;100741.00;;;;4970155;28;109016;-69
2023/07/06 05:46:43;;;;;;;2.60;1.40;;;17.30;92.70;17.60;100749.00;;;;4967678;28;109046;-70
2023/07/06 05:49:09;;;;;;;2.75;1.33;;;17.50;92.60;17.80;100760.00;;;;4969497;28;122930;-68
2023/07/06 05:51:35;;;;;;;1.70;1.05;;;17.60;92.30;18.00;100750.00;;;;4966759;28;122510;-69
2023/07/06 05:54:00;;;;;;;1.70;1.00;;;17.80;91.90;18.20;100753.00;;;;4966542;28;92895;-68
2023/07/06 05:56:26;;;;;;;5.07;1.20;;;18.00;91.40;18.40;100747.00;;;;4966022;28;109366;-69
2023/07/06 05:58:52;;;;;;;1.05;1.05;;;18.20;90.90;18.60;100746.00;;;;4967188;28;123352;-68
2023/07/06 06:01:23;;;;;;;3.42;1.13;;;18.40;90.60;18.80;100746.00;;;;4967594;28;121668;-69
2023/07/06 06:03:49;;;;;;;0.40;0.40;;;18.60;90.20;19.00;100753.00;;;;4970044;28;93024;-68
2023/07/06 06:06:15;;;;;;;1.63;1.00;;;18.80;90.00;19.20;100749.00;;;;4970606;28;108847;-68
2023/07/06 06:08:41;;;;;;;1.00;0.85;;;19.00;89.30;19.40;100760.00;;;;4970068;28;121802;-70
2023/07/06 06:11:06;;;;;;;0.82;0.82;;;19.20;87.50;19.70;100754.00;;;;4969211;28;121930;-69
2023/07/06 06:13:33;;;;;;;0.50;0.50;;;19.40;87.00;19.90;100757.00;;;;4973074;28;103653;-70
2023/07/06 06:15:58;;;;;;;1.17;0.82;;;19.70;85.60;20.10;100765.00;;;;4951367;28;93104;-70
2023/07/06 06:18:27;;;;;;;1.02;0.68;;;19.80;83.70;20.20;100755.00;;;;4970706;28;93430;-70
2023/07/06 06:20:52;;;;;;;0.68;0.68;;;20.00;83.10;20.40;100757.00;;;;4971119;28;93912;-70
2023/07/06 06:23:20;;;;;;;1.10;0.82;;;20.20;82.90;20.60;100766.00;;;;4953072;28;92991;-68
2023/07/06 06:25:47;;;;;;;0.93;0.75;;;20.40;82.00;20.80;100770.00;;;;4973264;28;93025;-69
2023/07/06 06:28:12;;;;;;;0.85;0.70;;;20.60;81.20;21.00;100774.00;;;;4967947;28;93424;-69
2023/07/06 06:30:40;;;;;;;1.25;0.90;;;20.80;80.50;21.30;100778.00;;;;4964951;28;121950;-69
2023/07/06 06:33:06;;;;;;;2.35;1.23;;;21.00;79.70;21.40;100773.00;;;;4952285;28;92862;-69
2023/07/06 06:35:33;;;;;;;1.67;0.88;;;21.30;78.50;21.60;100777.00;;;;4967383;28;107539;-69
2023/07/06 06:38:03;;;;;;;0.85;0.75;;;21.30;78.40;21.70;100784.00;;;;4970442;28;93201;-68
2023/07/06 06:40:30;;;;;;;0.43;0.43;;;21.50;76.70;21.80;100782.00;;;;4965877;28;94416;-69
2023/07/06 06:42:57;;;;;;;0.52;0.52;;;21.60;75.30;21.80;100783.00;;;;4971166;28;92866;-69
2023/07/06 06:45:23;;;;;;;0.95;0.55;;;21.70;74.90;21.90;100782.00;;;;4955875;28;93902;-68
2023/07/06 06:47:50;;;;;;;2.35;0.77;;;21.80;73.20;22.00;100790.00;;;;4968770;28;123016;-69
2023/07/06 06:50:17;;;;;;;2.17;0.77;;;21.90;72.70;22.10;100794.00;;;;4971274;28;94234;-68
2023/07/06 06:52:43;;;;;;;1.67;0.70;;;21.90;72.30;22.10;100789.00;;;;4971212;28;93006;-69
2023/07/06 06:55:10;;;;;;;0.70;0.50;;;22.00;71.20;22.00;100804.00;;;;4971211;28;93070;-68
2023/07/06 06:57:37;;;;;;;1.13;0.75;;;21.90;71.20;22.00;100794.00;;;;4970290;28;93247;-68
2023/07/06 07:00:13;;;;;;;0.88;0.68;;;21.90;70.70;22.00;100791.00;;;;4973539;28;109897;-67
2023/07/06 07:02:40;;;;;;;1.63;0.77;;;21.90;71.20;22.20;100795.00;;;;4968694;28;92208;-68
2023/07/06 07:05:07;;;;;;;0.63;0.52;;;22.00;72.20;22.40;100793.00;;;;4973157;28;92897;-68
2023/07/06 07:07:38;;;;;;;0.77;0.50;;;22.20;70.70;22.50;100796.00;;;;4973743;28;93703;-67
2023/07/06 07:10:11;;;;;;;0.45;0.45;;;22.30;70.00;22.60;100791.00;;;;4965949;28;94956;-70
2023/07/06 07:12:42;;;;;;;0.65;0.55;;;22.50;69.90;22.80;100799.00;;;;4972094;28;92963;-69
2023/07/06 07:15:10;;;;;;;0.85;0.60;;;22.60;69.20;22.90;100797.00;;;;4964591;28;93065;-68
2023/07/06 07:17:37;;;;;;;1.13;0.80;;;22.70;67.70;22.90;100797.00;;;;4970094;28;94088;-67
2023/07/06 07:20:03;;;;;;;0.50;0.45;;;22.80;66.30;22.90;100798.00;;;;4969040;28;93563;-68
2023/07/06 07:22:28;;;;;;;0.80;0.75;;;22.80;65.40;22.90;100797.00;;;;4968795;28;98176;-68
2023/07/06 07:24:54;;;;;;;0.80;0.75;;;22.80;65.90;23.00;100787.00;;;;4968389;28;108770;-69
2023/07/06 07:27:20;;;;;;;2.53;0.80;;;22.90;65.70;23.10;100795.00;;;;4968133;28;120060;-69
2023/07/06 07:29:49;;;;;;;3.42;0.70;;;23.00;66.00;23.30;100802.00;;;;4969015;28;122620;-68
2023/07/06 07:32:15;;;;;;;0.85;0.70;;;23.10;64.90;23.30;100798.00;;;;4970512;28;94237;-68
2023/07/06 07:34:43;;;;;;;1.45;0.98;;;23.20;63.80;23.40;100799.00;;;;4970863;28;108918;-68
2023/07/06 07:37:10;;;;;;;2.50;1.10;;;23.20;64.10;23.50;100796.00;;;;4968018;28;93690;-67
2023/07/06 07:39:37;;;;;;;1.08;0.57;;;23.30;63.30;23.50;100798.00;;;;4966828;28;93515;-68
2023/07/06 07:42:03;;;;;;;0.75;0.47;;;23.40;61.80;23.50;100798.00;;;;4964974;28;94245;-69
2023/07/06 07:44:29;;;;;;;0.43;0.43;;;23.40;61.80;23.60;100792.00;;;;4965276;28;93123;-69
2023/07/06 07:46:55;;;;;;;1.08;0.60;;;23.40;61.40;23.80;100803.00;;;;4969135;28;122253;-69
2023/07/06 07:49:21;;;;;;;0.60;0.60;;;23.60;61.40;24.00;100806.00;;;;4968937;28;92930;-69
2023/07/06 07:51:46;;;;;;;2.25;0.70;;;23.80;61.20;24.10;100795.00;;;;4968695;28;111216;-69
2023/07/06 07:54:12;;;;;;;1.50;1.08;;;23.90;61.40;24.40;100802.00;;;;4971113;28;107711;-69
2023/07/06 07:56:38;;;;;;;1.00;0.90;;;24.10;61.00;24.60;100804.00;;;;4965482;28;92807;-70
2023/07/06 07:59:04;;;;;;;0.85;0.85;;;24.30;60.10;24.60;100809.00;;;;4967087;28;122403;-69
2023/07/06 08:01:30;;;;;;;0.60;0.60;;;24.40;59.30;24.60;100798.00;;;;4966870;28;99688;-69
2023/07/06 08:03:57;;;;;;;1.42;1.27;;;24.50;58.50;24.50;100800.00;;;;4966305;28;92841;-68
2023/07/06 08:06:23;;;;;;;0.43;0.32;;;24.40;57.80;24.50;100796.00;;;;4969729;28;94022;-69
2023/07/06 08:08:49;;;;;;;1.65;0.70;;;24.30;58.40;24.50;100802.00;;;;4966625;28;123831;-69
2023/07/06 08:11:20;;;;;;;3.60;0.93;;;24.40;58.00;24.70;100804.00;;;;4966785;28;109942;-68
2023/07/06 08:13:50;;;;;;;2.30;1.02;;;24.50;58.00;24.80;100798.00;;;;4949138;28;92938;-68
2023/07/06 08:16:19;;;;;;;1.38;0.90;;;24.60;57.30;24.90;100801.00;;;;4969092;28;92422;-69
2023/07/06 08:18:46;;;;;;;0.52;0.40;;;24.70;56.90;25.00;100805.00;;;;4967586;28;93759;-70
2023/07/06 08:21:13;;;;;;;0.65;0.65;;;24.80;56.80;25.10;100804.00;;;;4967933;28;92792;-68
2023/07/06 08:23:47;;;;;;;0.50;0.50;;;24.90;56.70;25.40;100803.00;;;;4966432;28;93874;-69
2023/07/06 08:26:12;;;;;;;0.60;0.60;;;25.10;56.30;25.60;100799.00;;;;4968249;28;94140;-68
2023/07/06 08:28:39;;;;;;;1.33;1.10;;;25.40;56.10;25.70;100804.00;;;;4965933;28;122047;-70
2023/07/06 08:31:12;;;;;;;1.65;0.85;;;25.50;55.60;25.70;100807.00;;;;4966566;28;92808;-68
2023/07/06 08:33:38;;;;;;;0.63;0.50;;;25.60;54.60;25.70;100803.00;;;;4954659;28;93058;-71
2023/07/06 08:36:09;;;;;;;0.75;0.75;;;25.50;54.50;25.80;100806.00;;;;4953650;28;93104;-69
2023/07/06 08:38:37;;;;;;;0.98;0.77;;;25.60;54.50;25.80;100804.00;;;;4964848;28;93220;-69
2023/07/06 08:41:19;;;;;;;0.57;0.57;;;25.70;54.30;25.90;100811.00;;;;4971808;28;92157;-69
2023/07/06 08:43:46;;;;;;;1.88;0.65;;;25.70;53.50;25.80;100804.00;;;;4970206;28;93160;-69
2023/07/06 08:46:12;;;;;;;1.60;1.13;;;25.70;52.20;25.80;100811.00;;;;4953009;28;93650;-71
2023/07/06 08:48:39;;;;;;;2.22;0.65;;;25.60;52.10;25.90;100816.00;;;;4970520;28;93755;-70
2023/07/06 08:51:27;;;;;;;1.55;0.45;;;25.70;52.70;26.00;100815.00;;;;4951758;28;102742;-71
2023/07/06 08:54:00;;;;;;;1.02;0.38;;;25.80;51.30;26.10;100816.00;;;;4957395;28;93042;-70
2023/07/06 08:56:28;;;;;;;1.08;0.70;;;25.90;51.10;26.00;100811.00;;;;4967952;28;93758;-70
2023/07/06 08:58:56;;;;;;;0.90;0.47;;;25.90;50.70;25.90;100813.00;;;;4965317;28;93234;-69
2023/07/06 09:01:24;;;;;;;0.47;0.47;;;25.80;51.10;25.90;100809.00;;;;4969291;28;101695;-70
2023/07/06 09:04:07;;;;;;;0.75;0.75;;;25.70;51.20;26.00;100812.00;;;;4968226;28;92811;-72
2023/07/06 09:06:37;;;;;;;0.82;0.80;;;25.80;51.60;26.20;100809.00;;;;4953497;28;91989;-71
2023/07/06 09:09:03;;;;;;;0.55;0.55;;;25.90;51.80;26.50;100807.00;;;;4952379;28;93014;-71
2023/07/06 09:11:33;;;;;;;0.60;0.47;;;26.20;51.80;26.90;100814.00;;;;4969928;28;92692;-71
2023/07/06 09:14:07;;;;;;;0.60;0.60;;;26.50;51.40;27.10;100807.00;;;;4953465;28;94073;-71
2023/07/06 09:16:46;;;;;;;1.83;0.95;;;26.70;50.50;27.00;100819.00;;;;4947505;28;93490;-71
2023/07/06 09:19:15;;;;;;;0.93;0.47;;;26.80;50.30;26.90;100803.00;;;;4951700;28;93158;-72
2023/07/06 09:21:47;;;;;;;0.47;0.47;;;26.70;49.30;26.80;100818.00;;;;4968694;28;93130;-71
2023/07/06 09:24:13;;;;;;;0.43;0.43;;;26.60;49.60;26.80;100822.00;;;;4966080;28;93072;-71
2023/07/06 09:26:38;;;;;;;1.45;0.93;;;26.60;49.80;26.80;100818.00;;;;4967467;28;94583;-70
2023/07/06 09:29:11;;;;;;;0.65;0.65;;;26.60;48.80;26.60;100817.00;;;;4967154;28;121720;-71
2023/07/06 09:31:37;;;;;;;0.40;0.40;;;26.50;48.40;26.30;100828.00;;;;4972831;28;91886;-71
2023/07/06 09:34:07;;;;;;;0.40;0.40;;;26.20;47.60;25.90;100830.00;;;;4970464;28;108970;-71
2023/07/06 09:36:32;;;;;;;1.38;0.68;;;25.90;47.60;25.70;100830.00;;;;4974602;28;93007;-73
2023/07/06 09:39:09;;;;;;;0.68;0.68;;;25.60;48.00;25.60;100822.00;;;;4971558;28;122335;-71
2023/07/06 09:41:44;;;;;;;3.50;0.82;;;25.50;48.20;25.70;100825.00;;;;4938406;28;93145;-74
2023/07/06 09:44:16;;;;;;;1.75;0.80;;;25.50;48.20;25.80;100827.00;;;;4955391;28;92770;-73
2023/07/06 09:46:43;;;;;;;1.38;0.65;;;25.60;48.20;26.10;100827.00;;;;4967626;28;112141;-73
2023/07/06 09:49:19;;;;;;;0.47;0.47;;;25.70;48.40;26.40;100837.00;;;;4956454;28;93698;-71
2023/07/06 09:52:01;;;;;;;1.10;0.47;;;26.00;48.00;26.60;100839.00;;;;4957978;28;109403;-72
2023/07/06 09:54:50;;;;;;;1.05;0.68;;;26.20;47.60;26.70;100846.00;;;;4956822;28;93005;-73
2023/07/06 09:57:16;;;;;;;1.52;0.82;;;26.40;47.20;26.60;100832.00;;;;4954214;28;92341;-73
2023/07/06 09:59:52;;;;;;;0.77;0.52;;;26.40;47.10;26.40;100846.00;;;;4953890;28;120425;-73
2023/07/06 10:02:49;;;;;;;1.40;0.40;;;26.20;47.00;26.10;100837.00;;;;4970542;28;93093;-71
2023/07/06 10:05:25;;;;;;;1.13;0.43;;;26.00;46.60;26.10;100838.00;;;;4954084;28;99689;-73
2023/07/06 10:08:11;;;;;;;0.65;0.50;;;26.10;46.90;26.30;100834.00;;;;4951266;28;94875;-72
2023/07/06 10:11:06;;;;;;;1.25;0.65;;;25.90;47.00;26.20;100832.00;;;;4933487;28;93174;-73
2023/07/06 10:13:59;;;;;;;0.80;0.70;;;26.00;46.10;26.20;100838.00;;;;4935825;28;95891;-71
2023/07/06 10:16:42;;;;;;;0.52;0.52;;;25.90;46.90;26.20;100834.00;;;;4936608;28;93318;-71
2023/07/06 10:19:29;;;;;;;1.35;0.68;;;25.90;46.40;26.10;100830.00;;;;4952813;28;93925;-72
2023/07/06 10:22:26;;;;;;;0.73;0.70;;;25.80;46.60;26.00;100828.00;;;;4916104;28;94610;-71
2023/07/06 10:25:22;;;;;;;1.27;0.80;;;25.70;46.50;25.80;100827.00;;;;4935564;28;92134;-74
2023/07/06 10:27:58;;;;;;;2.60;0.80;;;25.60;45.70;25.80;100837.00;;;;4952361;28;93083;-73
2023/07/06 10:30:31;;;;;;;2.97;0.60;;;25.50;46.20;25.90;100822.00;;;;4932774;28;111235;-72
2023/07/06 10:33:02;;;;;;;0.68;0.40;;;25.50;46.30;26.20;100820.00;;;;4935704;28;94122;-74
2023/07/06 10:35:35;;;;;;;1.10;0.35;;;25.70;46.50;26.40;100826.00;;;;4954181;28;92831;-72
2023/07/06 10:38:01;;;;;;;1.33;0.60;;;25.90;45.90;26.50;100825.00;;;;4937394;28;93324;-74
2023/07/06 10:40:29;;;;;;;0.88;0.60;;;26.10;45.40;26.80;100818.00;;;;4954108;28;122388;-73
2023/07/06 10:43:13;;;;;;;1.55;0.60;;;26.20;45.70;27.10;100824.00;;;;4955117;28;113543;-72
2023/07/06 10:45:51;;;;;;;1.85;0.55;;;26.50;45.10;27.60;100825.00;;;;4956556;28;92658;-74
2023/07/06 10:48:34;;;;;;;1.75;0.35;;;26.90;45.50;28.10;100814.00;;;;4931284;28;93143;-73
2023/07/06 10:51:26;;;;;;;0.60;0.60;;;27.30;44.50;28.50;100817.00;;;;4938437;28;92485;-72
2023/07/06 10:54:34;;;;;;;0.30;0.30;;;27.70;44.10;28.90;100819.00;;;;4918778;28;92694;-73
2023/07/06 10:57:13;;;;;;;0.60;0.50;;;28.10;43.50;29.30;100824.00;;;;4945529;28;110656;-72
2023/07/06 10:59:49;;;;;;;0.82;0.50;;;28.50;43.00;29.70;100818.00;;;;4954131;28;93972;-74